Terminal Aerodrome Forecast
Issued by NWS Northern Indiana

Home | Current Version | Previous Version | Text Only | Print | Product List | Glossary Off
Versions: 1 2 3 4 5 6 7 8 9 10 11 12 13 14 15 16 17 18 19 20 21

000
FTUS43 KIWX 100856 AAA
TAFFWA
TAF AMD
KFWA 100856Z 1009/1106 25007KT P6SM BKN030
     FM101500 24010G18KT P6SM BKN080
     FM102300 27006KT P6SM BKN040=

USA.gov is the U.S. government's official web portal to all federal, state and local government web resources and services.